Piloto por un Día

El Centro de Instrucción de Aeronáutica Civil te ofrece la oportunidad de Volar un Avión, ingresando al programa Piloto por un Dia, donde ademas se te brindara un curso teórico y practicaras en el simulador antes de volar un avión real del Aeroclub Mar del Plata bajo la asistencia de un Instructor de Vuelo.

Comunícate con nosotros y reserva un dia para cumplir tu sueño de volar.

 

 

[ngg_images source=”galleries” container_ids=”42″ display_type=”photocrati-nextgen_basic_thumbnails” override_thumbnail_settings=”0″ thumbnail_width=”240″ thumbnail_height=”160″ thumbnail_crop=”1″ images_per_page=”20″ number_of_columns=”0″ ajax_pagination=”0″ show_all_in_lightbox=”0″ use_imagebrowser_effect=”0″ show_slideshow_link=”0″ slideshow_link_text=”[Mostrar presentación de diapositivas]” order_by=”sortorder” order_direction=”ASC” returns=”included” maximum_entity_count=”500″]

 

 

 

 

Facebook Aeroclub Mar del Plata

Informe Climatico
MAR DEL PLATA AR
Metar
SAZM 231500Z 34012KT CAVOK 18/10 Q1023

15:00 UTC

Wind: 340° 12kt

Visibility:

Sky:

Temp: 18 deg C / 64.4 deg F

Dewpoint: 10 deg C / 50 deg F

Pressure: 1023 hPa

TAF
TAF SAZM 231100Z 2312/2412 32010KT CAVOK TX20/2318Z TN07/2410Z BECMG 2315/2318 32015KT TEMPO 2403/2406 27015KT BECMG 2409/2412 18010KT 8000 NSC